sensor_id;sensor_type;location;lat;lon;timestamp;temperature;humidity
22738;DHT22;11536;50.860;4.286;2024-02-26T00:01:42;8.70;99.90
22738;DHT22;11536;50.860;4.286;2024-02-26T00:04:11;8.60;99.90
22738;DHT22;11536;50.860;4.286;2024-02-26T00:06:38;8.60;99.90
22738;DHT22;11536;50.860;4.286;2024-02-26T00:09:12;8.50;99.90
22738;DHT22;11536;50.860;4.286;2024-02-26T00:11:38;8.50;99.90
22738;DHT22;11536;50.860;4.286;2024-02-26T00:14:04;8.50;99.90
22738;DHT22;11536;50.860;4.286;2024-02-26T00:16:30;8.50;99.90
22738;DHT22;11536;50.860;4.286;2024-02-26T00:18:56;8.40;99.90
22738;DHT22;11536;50.860;4.286;2024-02-26T00:21:22;8.40;99.90
22738;DHT22;11536;50.860;4.286;2024-02-26T00:23:49;8.40;99.90
22738;DHT22;11536;50.860;4.286;2024-02-26T00:26:15;8.30;99.90
22738;DHT22;11536;50.860;4.286;2024-02-26T00:28:41;8.40;99.90
22738;DHT22;11536;50.860;4.286;2024-02-26T00:31:06;8.30;99.90
22738;DHT22;11536;50.860;4.286;2024-02-26T00:33:32;8.30;99.90
22738;DHT22;11536;50.860;4.286;2024-02-26T00:35:57;8.30;99.90
22738;DHT22;11536;50.860;4.286;2024-02-26T00:38:23;8.30;99.90
22738;DHT22;11536;50.860;4.286;2024-02-26T00:40:49;8.20;99.90
22738;DHT22;11536;50.860;4.286;2024-02-26T00:43:14;8.20;99.90
22738;DHT22;11536;50.860;4.286;2024-02-26T00:45:40;8.20;99.90
22738;DHT22;11536;50.860;4.286;2024-02-26T00:48:06;8.20;99.90
22738;DHT22;11536;50.860;4.286;2024-02-26T00:50:33;8.20;99.90
22738;DHT22;11536;50.860;4.286;2024-02-26T00:52:59;8.20;99.90
22738;DHT22;11536;50.860;4.286;2024-02-26T00:55:25;8.20;99.90
22738;DHT22;11536;50.860;4.286;2024-02-26T00:57:50;8.20;99.90
22738;DHT22;11536;50.860;4.286;2024-02-26T01:00:16;8.20;99.90
22738;DHT22;11536;50.860;4.286;2024-02-26T01:02:42;8.10;99.90
22738;DHT22;11536;50.860;4.286;2024-02-26T01:05:08;8.20;99.90
22738;DHT22;11536;50.860;4.286;2024-02-26T01:07:37;8.20;99.90
22738;DHT22;11536;50.860;4.286;2024-02-26T01:10:03;8.10;99.90
22738;DHT22;11536;50.860;4.286;2024-02-26T01:12:29;8.10;99.90
22738;DHT22;11536;50.860;4.286;2024-02-26T01:14:55;8.10;99.90
22738;DHT22;11536;50.860;4.286;2024-02-26T01:17:20;8.10;99.90
22738;DHT22;11536;50.860;4.286;2024-02-26T01:19:46;8.10;99.90
22738;DHT22;11536;50.860;4.286;2024-02-26T01:22:12;8.10;99.90
22738;DHT22;11536;50.860;4.286;2024-02-26T01:24:37;8.00;99.90
22738;DHT22;11536;50.860;4.286;2024-02-26T01:27:03;8.00;99.90
22738;DHT22;11536;50.860;4.286;2024-02-26T01:29:29;8.00;99.90
22738;DHT22;11536;50.860;4.286;2024-02-26T01:31:54;8.00;99.90
22738;DHT22;11536;50.860;4.286;2024-02-26T01:34:20;8.00;99.90
22738;DHT22;11536;50.860;4.286;2024-02-26T01:36:46;8.00;99.90
22738;DHT22;11536;50.860;4.286;2024-02-26T01:39:11;8.10;99.90
22738;DHT22;11536;50.860;4.286;2024-02-26T01:41:38;8.10;99.90
22738;DHT22;11536;50.860;4.286;2024-02-26T01:44:04;8.10;99.90
22738;DHT22;11536;50.860;4.286;2024-02-26T01:46:32;8.10;99.90
22738;DHT22;11536;50.860;4.286;2024-02-26T01:48:58;8.10;99.90
22738;DHT22;11536;50.860;4.286;2024-02-26T01:51:24;8.10;99.90
22738;DHT22;11536;50.860;4.286;2024-02-26T01:53:51;8.00;99.90
22738;DHT22;11536;50.860;4.286;2024-02-26T01:56:17;8.00;99.90
22738;DHT22;11536;50.860;4.286;2024-02-26T01:58:44;8.00;99.90
22738;DHT22;11536;50.860;4.286;2024-02-26T02:01:10;8.00;99.90
22738;DHT22;11536;50.860;4.286;2024-02-26T02:03:37;8.00;99.90
22738;DHT22;11536;50.860;4.286;2024-02-26T02:06:03;8.00;99.90
22738;DHT22;11536;50.860;4.286;2024-02-26T02:08:29;8.00;99.90
22738;DHT22;11536;50.860;4.286;2024-02-26T02:10:55;8.00;99.90
22738;DHT22;11536;50.860;4.286;2024-02-26T02:13:21;7.90;99.90
22738;DHT22;11536;50.860;4.286;2024-02-26T02:15:47;7.90;99.90
22738;DHT22;11536;50.860;4.286;2024-02-26T02:18:16;7.90;99.90
22738;DHT22;11536;50.860;4.286;2024-02-26T02:20:41;7.90;99.90
22738;DHT22;11536;50.860;4.286;2024-02-26T02:23:07;7.90;99.90
22738;DHT22;11536;50.860;4.286;2024-02-26T02:25:32;7.90;99.90
22738;DHT22;11536;50.860;4.286;2024-02-26T02:27:58;7.90;99.90
22738;DHT22;11536;50.860;4.286;2024-02-26T02:30:26;7.90;99.90
22738;DHT22;11536;50.860;4.286;2024-02-26T02:32:53;7.90;99.90
22738;DHT22;11536;50.860;4.286;2024-02-26T02:35:19;7.90;99.90
22738;DHT22;11536;50.860;4.286;2024-02-26T02:37:44;7.90;99.90
22738;DHT22;11536;50.860;4.286;2024-02-26T02:40:10;7.90;99.90
22738;DHT22;11536;50.860;4.286;2024-02-26T02:42:36;7.80;99.90
22738;DHT22;11536;50.860;4.286;2024-02-26T02:45:01;7.80;99.90
22738;DHT22;11536;50.860;4.286;2024-02-26T02:47:27;7.80;99.90
22738;DHT22;11536;50.860;4.286;2024-02-26T02:49:53;7.80;99.90
22738;DHT22;11536;50.860;4.286;2024-02-26T02:52:18;7.70;99.90
22738;DHT22;11536;50.860;4.286;2024-02-26T02:54:44;7.80;99.90
22738;DHT22;11536;50.860;4.286;2024-02-26T02:57:09;7.70;99.90
22738;DHT22;11536;50.860;4.286;2024-02-26T02:59:37;7.70;99.90
22738;DHT22;11536;50.860;4.286;2024-02-26T03:02:03;7.70;99.90
22738;DHT22;11536;50.860;4.286;2024-02-26T03:04:28;7.70;99.90
22738;DHT22;11536;50.860;4.286;2024-02-26T03:06:55;7.70;99.90
22738;DHT22;11536;50.860;4.286;2024-02-26T03:09:20;7.70;99.90
22738;DHT22;11536;50.860;4.286;2024-02-26T03:11:46;7.70;99.90
22738;DHT22;11536;50.860;4.286;2024-02-26T03:14:11;7.70;99.90
22738;DHT22;11536;50.860;4.286;2024-02-26T03:16:37;7.70;99.90
22738;DHT22;11536;50.860;4.286;2024-02-26T03:19:03;7.70;99.90
22738;DHT22;11536;50.860;4.286;2024-02-26T03:21:28;7.70;99.90
22738;DHT22;11536;50.860;4.286;2024-02-26T03:23:54;7.70;99.90
22738;DHT22;11536;50.860;4.286;2024-02-26T03:26:20;7.70;99.90
22738;DHT22;11536;50.860;4.286;2024-02-26T03:28:47;7.60;99.90
22738;DHT22;11536;50.860;4.286;2024-02-26T03:31:12;7.60;99.90
22738;DHT22;11536;50.860;4.286;2024-02-26T03:33:38;7.60;99.90
22738;DHT22;11536;50.860;4.286;2024-02-26T03:36:04;7.60;99.90
22738;DHT22;11536;50.860;4.286;2024-02-26T03:38:30;7.70;99.90
22738;DHT22;11536;50.860;4.286;2024-02-26T03:40:56;7.70;99.90
22738;DHT22;11536;50.860;4.286;2024-02-26T03:43:21;7.70;99.90
22738;DHT22;11536;50.860;4.286;2024-02-26T03:45:47;7.60;99.90
22738;DHT22;11536;50.860;4.286;2024-02-26T03:48:12;7.60;99.90
22738;DHT22;11536;50.860;4.286;2024-02-26T03:50:38;7.60;99.90
22738;DHT22;11536;50.860;4.286;2024-02-26T03:53:04;7.60;99.90
22738;DHT22;11536;50.860;4.286;2024-02-26T03:55:30;7.60;99.90
22738;DHT22;11536;50.860;4.286;2024-02-26T03:57:55;7.60;99.90
22738;DHT22;11536;50.860;4.286;2024-02-26T04:00:22;7.60;99.90
22738;DHT22;11536;50.860;4.286;2024-02-26T04:02:48;7.50;99.90
22738;DHT22;11536;50.860;4.286;2024-02-26T04:05:13;7.50;99.90
22738;DHT22;11536;50.860;4.286;2024-02-26T04:07:40;7.50;99.90
22738;DHT22;11536;50.860;4.286;2024-02-26T04:10:12;7.50;99.90
22738;DHT22;11536;50.860;4.286;2024-02-26T04:12:41;7.50;99.90
22738;DHT22;11536;50.860;4.286;2024-02-26T04:15:08;7.50;99.90
22738;DHT22;11536;50.860;4.286;2024-02-26T04:17:34;7.40;99.90
22738;DHT22;11536;50.860;4.286;2024-02-26T04:20:00;7.40;99.90
22738;DHT22;11536;50.860;4.286;2024-02-26T04:22:26;7.30;99.90
22738;DHT22;11536;50.860;4.286;2024-02-26T04:24:51;7.30;99.90
22738;DHT22;11536;50.860;4.286;2024-02-26T04:27:17;7.30;99.90
22738;DHT22;11536;50.860;4.286;2024-02-26T04:29:43;7.30;99.90
22738;DHT22;11536;50.860;4.286;2024-02-26T04:32:08;7.40;99.90
22738;DHT22;11536;50.860;4.286;2024-02-26T04:34:34;7.30;99.90
22738;DHT22;11536;50.860;4.286;2024-02-26T04:36:59;7.30;99.90
22738;DHT22;11536;50.860;4.286;2024-02-26T04:39:25;7.30;99.90
22738;DHT22;11536;50.860;4.286;2024-02-26T04:41:51;7.30;99.90
22738;DHT22;11536;50.860;4.286;2024-02-26T04:44:17;7.30;99.90
22738;DHT22;11536;50.860;4.286;2024-02-26T04:46:42;7.20;99.90
22738;DHT22;11536;50.860;4.286;2024-02-26T04:49:09;7.30;99.90
22738;DHT22;11536;50.860;4.286;2024-02-26T04:51:34;7.30;99.90
22738;DHT22;11536;50.860;4.286;2024-02-26T04:54:00;7.30;99.90
22738;DHT22;11536;50.860;4.286;2024-02-26T04:56:26;7.30;99.90
22738;DHT22;11536;50.860;4.286;2024-02-26T04:58:51;7.30;99.90
22738;DHT22;11536;50.860;4.286;2024-02-26T05:01:17;7.40;99.90
22738;DHT22;11536;50.860;4.286;2024-02-26T05:03:44;7.30;99.90
22738;DHT22;11536;50.860;4.286;2024-02-26T05:06:09;7.30;99.90
22738;DHT22;11536;50.860;4.286;2024-02-26T05:08:35;7.20;99.90
22738;DHT22;11536;50.860;4.286;2024-02-26T05:11:02;7.20;99.90
22738;DHT22;11536;50.860;4.286;2024-02-26T05:13:31;7.20;99.90
22738;DHT22;11536;50.860;4.286;2024-02-26T05:15:57;7.20;99.90
22738;DHT22;11536;50.860;4.286;2024-02-26T05:18:23;7.20;99.90
22738;DHT22;11536;50.860;4.286;2024-02-26T05:20:49;7.30;99.90
22738;DHT22;11536;50.860;4.286;2024-02-26T05:23:15;7.30;99.90
22738;DHT22;11536;50.860;4.286;2024-02-26T05:25:40;7.30;99.90
22738;DHT22;11536;50.860;4.286;2024-02-26T05:28:07;7.20;99.90
22738;DHT22;11536;50.860;4.286;2024-02-26T05:30:32;7.20;99.90
22738;DHT22;11536;50.860;4.286;2024-02-26T05:32:58;7.20;99.90
22738;DHT22;11536;50.860;4.286;2024-02-26T05:35:25;7.30;99.90
22738;DHT22;11536;50.860;4.286;2024-02-26T05:37:51;7.20;99.90
22738;DHT22;11536;50.860;4.286;2024-02-26T05:40:17;7.20;99.90
22738;DHT22;11536;50.860;4.286;2024-02-26T05:42:42;7.20;99.90
22738;DHT22;11536;50.860;4.286;2024-02-26T05:45:10;7.30;99.90
22738;DHT22;11536;50.860;4.286;2024-02-26T05:47:36;7.20;99.90
22738;DHT22;11536;50.860;4.286;2024-02-26T05:50:11;7.20;99.90
22738;DHT22;11536;50.860;4.286;2024-02-26T05:52:37;7.20;99.90
22738;DHT22;11536;50.860;4.286;2024-02-26T05:55:04;7.20;99.90
22738;DHT22;11536;50.860;4.286;2024-02-26T05:57:30;7.20;99.90
22738;DHT22;11536;50.860;4.286;2024-02-26T05:59:56;7.10;99.90
22738;DHT22;11536;50.860;4.286;2024-02-26T06:02:21;7.10;99.90
22738;DHT22;11536;50.860;4.286;2024-02-26T06:04:47;7.20;99.90
22738;DHT22;11536;50.860;4.286;2024-02-26T06:07:13;7.20;99.90
22738;DHT22;11536;50.860;4.286;2024-02-26T06:09:38;7.20;99.90
22738;DHT22;11536;50.860;4.286;2024-02-26T06:12:05;7.20;99.90
22738;DHT22;11536;50.860;4.286;2024-02-26T06:14:31;7.20;99.90
22738;DHT22;11536;50.860;4.286;2024-02-26T06:16:57;7.20;99.90
22738;DHT22;11536;50.860;4.286;2024-02-26T06:19:23;7.20;99.90
22738;DHT22;11536;50.860;4.286;2024-02-26T06:21:49;7.10;99.90
22738;DHT22;11536;50.860;4.286;2024-02-26T06:24:15;7.10;99.90
22738;DHT22;11536;50.860;4.286;2024-02-26T06:26:41;7.10;99.90
22738;DHT22;11536;50.860;4.286;2024-02-26T06:29:06;7.10;99.90
22738;DHT22;11536;50.860;4.286;2024-02-26T06:31:32;7.10;99.90
22738;DHT22;11536;50.860;4.286;2024-02-26T06:33:57;7.10;99.90
22738;DHT22;11536;50.860;4.286;2024-02-26T06:36:23;7.10;99.90
22738;DHT22;11536;50.860;4.286;2024-02-26T06:38:49;7.10;99.90
22738;DHT22;11536;50.860;4.286;2024-02-26T06:41:14;7.10;99.90
22738;DHT22;11536;50.860;4.286;2024-02-26T06:43:40;7.10;99.90
22738;DHT22;11536;50.860;4.286;2024-02-26T06:46:06;7.10;99.90
22738;DHT22;11536;50.860;4.286;2024-02-26T06:48:32;7.10;99.90
22738;DHT22;11536;50.860;4.286;2024-02-26T06:50:57;7.10;99.90
22738;DHT22;11536;50.860;4.286;2024-02-26T06:53:23;7.10;99.90
22738;DHT22;11536;50.860;4.286;2024-02-26T06:55:48;7.10;99.90
22738;DHT22;11536;50.860;4.286;2024-02-26T06:58:15;7.10;99.90
22738;DHT22;11536;50.860;4.286;2024-02-26T07:00:41;7.10;99.90
22738;DHT22;11536;50.860;4.286;2024-02-26T07:03:06;7.10;99.90
22738;DHT22;11536;50.860;4.286;2024-02-26T07:05:32;7.10;99.90
22738;DHT22;11536;50.860;4.286;2024-02-26T07:07:57;7.00;99.90
22738;DHT22;11536;50.860;4.286;2024-02-26T07:10:23;7.00;99.90
22738;DHT22;11536;50.860;4.286;2024-02-26T07:12:49;7.00;99.90
22738;DHT22;11536;50.860;4.286;2024-02-26T07:15:14;7.00;99.90
22738;DHT22;11536;50.860;4.286;2024-02-26T07:17:40;7.00;99.90
22738;DHT22;11536;50.860;4.286;2024-02-26T07:20:12;7.10;99.90
22738;DHT22;11536;50.860;4.286;2024-02-26T07:22:39;7.10;99.90
22738;DHT22;11536;50.860;4.286;2024-02-26T07:25:05;7.10;99.90
22738;DHT22;11536;50.860;4.286;2024-02-26T07:27:33;7.10;99.90
22738;DHT22;11536;50.860;4.286;2024-02-26T07:29:58;7.00;99.90
22738;DHT22;11536;50.860;4.286;2024-02-26T07:32:24;7.00;99.90
22738;DHT22;11536;50.860;4.286;2024-02-26T07:34:49;7.00;99.90
22738;DHT22;11536;50.860;4.286;2024-02-26T07:37:15;7.00;99.90
22738;DHT22;11536;50.860;4.286;2024-02-26T07:39:41;7.00;99.90
22738;DHT22;11536;50.860;4.286;2024-02-26T07:42:06;7.00;99.90
22738;DHT22;11536;50.860;4.286;2024-02-26T07:44:33;7.00;99.90
22738;DHT22;11536;50.860;4.286;2024-02-26T07:46:58;7.00;99.90
22738;DHT22;11536;50.860;4.286;2024-02-26T07:49:24;7.00;99.90
22738;DHT22;11536;50.860;4.286;2024-02-26T07:51:50;6.90;99.90
22738;DHT22;11536;50.860;4.286;2024-02-26T07:54:15;7.00;99.90
22738;DHT22;11536;50.860;4.286;2024-02-26T07:56:41;7.00;99.90
22738;DHT22;11536;50.860;4.286;2024-02-26T07:59:07;7.00;99.90
22738;DHT22;11536;50.860;4.286;2024-02-26T08:01:33;7.00;99.90
22738;DHT22;11536;50.860;4.286;2024-02-26T08:03:59;7.00;99.90
22738;DHT22;11536;50.860;4.286;2024-02-26T08:06:25;7.00;99.90
22738;DHT22;11536;50.860;4.286;2024-02-26T08:08:51;7.00;99.90
22738;DHT22;11536;50.860;4.286;2024-02-26T08:11:16;7.00;99.90
22738;DHT22;11536;50.860;4.286;2024-02-26T08:13:42;7.00;99.90
22738;DHT22;11536;50.860;4.286;2024-02-26T08:16:11;7.00;99.90
22738;DHT22;11536;50.860;4.286;2024-02-26T08:18:37;7.00;99.90
22738;DHT22;11536;50.860;4.286;2024-02-26T08:21:03;7.00;99.90
22738;DHT22;11536;50.860;4.286;2024-02-26T08:23:28;6.90;99.90
22738;DHT22;11536;50.860;4.286;2024-02-26T08:25:54;6.90;99.90
22738;DHT22;11536;50.860;4.286;2024-02-26T08:28:20;6.90;99.90
22738;DHT22;11536;50.860;4.286;2024-02-26T08:30:45;6.90;99.90
22738;DHT22;11536;50.860;4.286;2024-02-26T08:33:11;6.90;99.90
22738;DHT22;11536;50.860;4.286;2024-02-26T08:35:37;6.90;99.90
22738;DHT22;11536;50.860;4.286;2024-02-26T08:38:02;7.00;99.90
22738;DHT22;11536;50.860;4.286;2024-02-26T08:40:29;6.90;99.90
22738;DHT22;11536;50.860;4.286;2024-02-26T08:42:54;6.90;99.90
22738;DHT22;11536;50.860;4.286;2024-02-26T08:45:21;6.90;99.90
22738;DHT22;11536;50.860;4.286;2024-02-26T08:47:46;6.90;99.90
22738;DHT22;11536;50.860;4.286;2024-02-26T08:50:13;6.90;99.90
22738;DHT22;11536;50.860;4.286;2024-02-26T08:52:39;6.90;99.90
22738;DHT22;11536;50.860;4.286;2024-02-26T08:55:06;6.90;99.90
22738;DHT22;11536;50.860;4.286;2024-02-26T08:57:32;6.90;99.90
22738;DHT22;11536;50.860;4.286;2024-02-26T08:59:59;6.90;99.90
22738;DHT22;11536;50.860;4.286;2024-02-26T09:02:26;6.80;99.90
22738;DHT22;11536;50.860;4.286;2024-02-26T09:04:51;6.90;99.90
22738;DHT22;11536;50.860;4.286;2024-02-26T09:07:19;6.90;99.90
22738;DHT22;11536;50.860;4.286;2024-02-26T09:09:45;6.90;99.90
22738;DHT22;11536;50.860;4.286;2024-02-26T09:12:10;7.00;99.90
22738;DHT22;11536;50.860;4.286;2024-02-26T09:14:36;7.00;99.90
22738;DHT22;11536;50.860;4.286;2024-02-26T09:17:02;7.00;99.90
22738;DHT22;11536;50.860;4.286;2024-02-26T09:19:27;7.00;99.90
22738;DHT22;11536;50.860;4.286;2024-02-26T09:21:53;7.00;99.90
22738;DHT22;11536;50.860;4.286;2024-02-26T09:24:23;7.00;99.90
22738;DHT22;11536;50.860;4.286;2024-02-26T09:26:48;6.90;99.90
22738;DHT22;11536;50.860;4.286;2024-02-26T09:29:14;6.90;99.90
22738;DHT22;11536;50.860;4.286;2024-02-26T09:31:40;7.00;99.90
22738;DHT22;11536;50.860;4.286;2024-02-26T09:34:07;7.00;99.90
22738;DHT22;11536;50.860;4.286;2024-02-26T09:36:33;7.00;99.90
22738;DHT22;11536;50.860;4.286;2024-02-26T09:38:59;6.90;99.90
22738;DHT22;11536;50.860;4.286;2024-02-26T09:41:28;6.90;99.90
22738;DHT22;11536;50.860;4.286;2024-02-26T09:43:56;6.90;99.90
22738;DHT22;11536;50.860;4.286;2024-02-26T09:46:25;6.90;99.90
22738;DHT22;11536;50.860;4.286;2024-02-26T09:48:51;6.90;99.90
22738;DHT22;11536;50.860;4.286;2024-02-26T09:51:18;6.90;99.90
22738;DHT22;11536;50.860;4.286;2024-02-26T09:53:44;6.80;99.90
22738;DHT22;11536;50.860;4.286;2024-02-26T09:56:12;6.80;99.90
22738;DHT22;11536;50.860;4.286;2024-02-26T09:58:39;6.90;99.90
22738;DHT22;11536;50.860;4.286;2024-02-26T10:01:12;6.90;99.90
22738;DHT22;11536;50.860;4.286;2024-02-26T10:03:40;6.90;99.90
22738;DHT22;11536;50.860;4.286;2024-02-26T10:06:09;6.90;99.90
22738;DHT22;11536;50.860;4.286;2024-02-26T10:08:36;6.80;99.90
22738;DHT22;11536;50.860;4.286;2024-02-26T10:11:03;6.80;99.90
22738;DHT22;11536;50.860;4.286;2024-02-26T10:13:29;6.80;99.90
22738;DHT22;11536;50.860;4.286;2024-02-26T10:15:55;6.90;99.90
22738;DHT22;11536;50.860;4.286;2024-02-26T10:18:22;6.90;99.90
22738;DHT22;11536;50.860;4.286;2024-02-26T10:21:02;6.90;99.90
22738;DHT22;11536;50.860;4.286;2024-02-26T10:23:27;6.80;99.90
22738;DHT22;11536;50.860;4.286;2024-02-26T10:25:56;6.80;99.90
22738;DHT22;11536;50.860;4.286;2024-02-26T10:28:22;6.80;99.90
22738;DHT22;11536;50.860;4.286;2024-02-26T10:30:48;6.80;99.90
22738;DHT22;11536;50.860;4.286;2024-02-26T10:33:14;6.80;99.90
22738;DHT22;11536;50.860;4.286;2024-02-26T10:35:45;6.80;99.90
22738;DHT22;11536;50.860;4.286;2024-02-26T10:38:10;6.80;99.90
22738;DHT22;11536;50.860;4.286;2024-02-26T10:40:37;6.80;99.90
22738;DHT22;11536;50.860;4.286;2024-02-26T10:43:02;6.80;99.90
22738;DHT22;11536;50.860;4.286;2024-02-26T10:45:28;6.80;99.90
22738;DHT22;11536;50.860;4.286;2024-02-26T10:47:54;6.80;99.90
22738;DHT22;11536;50.860;4.286;2024-02-26T10:50:20;6.80;99.90
22738;DHT22;11536;50.860;4.286;2024-02-26T10:52:46;6.80;99.90
22738;DHT22;11536;50.860;4.286;2024-02-26T10:55:16;6.80;99.90
22738;DHT22;11536;50.860;4.286;2024-02-26T10:57:45;6.90;99.90
22738;DHT22;11536;50.860;4.286;2024-02-26T11:00:15;6.80;99.90
22738;DHT22;11536;50.860;4.286;2024-02-26T11:02:41;6.80;99.90
22738;DHT22;11536;50.860;4.286;2024-02-26T11:05:07;6.80;99.90
22738;DHT22;11536;50.860;4.286;2024-02-26T11:07:36;6.80;99.90
22738;DHT22;11536;50.860;4.286;2024-02-26T11:10:03;6.80;99.90
22738;DHT22;11536;50.860;4.286;2024-02-26T11:12:32;6.80;99.90
22738;DHT22;11536;50.860;4.286;2024-02-26T11:15:00;6.80;99.90
22738;DHT22;11536;50.860;4.286;2024-02-26T11:17:28;6.70;99.90
22738;DHT22;11536;50.860;4.286;2024-02-26T11:19:57;6.70;99.90
22738;DHT22;11536;50.860;4.286;2024-02-26T11:22:24;6.80;99.90
22738;DHT22;11536;50.860;4.286;2024-02-26T11:24:55;6.80;99.90
22738;DHT22;11536;50.860;4.286;2024-02-26T11:27:42;6.80;99.90
22738;DHT22;11536;50.860;4.286;2024-02-26T11:30:10;6.70;99.90
22738;DHT22;11536;50.860;4.286;2024-02-26T11:32:36;6.70;99.90
22738;DHT22;11536;50.860;4.286;2024-02-26T11:35:04;6.70;99.90
22738;DHT22;11536;50.860;4.286;2024-02-26T11:37:31;6.60;99.90
22738;DHT22;11536;50.860;4.286;2024-02-26T11:39:59;6.60;99.90
22738;DHT22;11536;50.860;4.286;2024-02-26T11:42:27;6.60;99.90
22738;DHT22;11536;50.860;4.286;2024-02-26T11:44:56;6.60;99.90
22738;DHT22;11536;50.860;4.286;2024-02-26T11:47:27;6.60;99.90
22738;DHT22;11536;50.860;4.286;2024-02-26T11:49:52;6.60;99.90
22738;DHT22;11536;50.860;4.286;2024-02-26T11:52:18;6.60;99.90
22738;DHT22;11536;50.860;4.286;2024-02-26T11:54:51;6.60;99.90
22738;DHT22;11536;50.860;4.286;2024-02-26T12:02:44;6.60;99.90
22738;DHT22;11536;50.860;4.286;2024-02-26T12:05:23;6.60;99.90
22738;DHT22;11536;50.860;4.286;2024-02-26T12:07:53;6.50;99.90
22738;DHT22;11536;50.860;4.286;2024-02-26T12:10:31;6.50;99.90
22738;DHT22;11536;50.860;4.286;2024-02-26T12:13:05;6.50;99.90
22738;DHT22;11536;50.860;4.286;2024-02-26T12:15:33;6.50;99.90
22738;DHT22;11536;50.860;4.286;2024-02-26T12:18:02;6.50;99.90
22738;DHT22;11536;50.860;4.286;2024-02-26T12:20:28;6.50;99.90
22738;DHT22;11536;50.860;4.286;2024-02-26T12:22:54;6.50;99.90
22738;DHT22;11536;50.860;4.286;2024-02-26T12:25:28;6.60;99.90
22738;DHT22;11536;50.860;4.286;2024-02-26T12:27:55;6.60;99.90
22738;DHT22;11536;50.860;4.286;2024-02-26T12:30:22;6.60;99.90
22738;DHT22;11536;50.860;4.286;2024-02-26T12:32:53;6.60;99.90
22738;DHT22;11536;50.860;4.286;2024-02-26T12:35:25;6.60;99.90
22738;DHT22;11536;50.860;4.286;2024-02-26T12:37:55;6.70;99.90
22738;DHT22;11536;50.860;4.286;2024-02-26T12:40:21;6.70;99.90
22738;DHT22;11536;50.860;4.286;2024-02-26T12:42:47;6.70;99.90
22738;DHT22;11536;50.860;4.286;2024-02-26T12:45:13;6.70;99.90
22738;DHT22;11536;50.860;4.286;2024-02-26T12:47:42;6.60;99.90
22738;DHT22;11536;50.860;4.286;2024-02-26T12:50:09;6.60;99.90
22738;DHT22;11536;50.860;4.286;2024-02-26T12:52:42;6.70;99.90
22738;DHT22;11536;50.860;4.286;2024-02-26T12:55:09;6.60;99.90
22738;DHT22;11536;50.860;4.286;2024-02-26T12:57:38;6.60;99.90
22738;DHT22;11536;50.860;4.286;2024-02-26T13:00:07;6.60;99.90
22738;DHT22;11536;50.860;4.286;2024-02-26T13:02:37;6.50;99.90
22738;DHT22;11536;50.860;4.286;2024-02-26T13:05:04;6.50;99.90
22738;DHT22;11536;50.860;4.286;2024-02-26T13:07:46;6.50;99.90
22738;DHT22;11536;50.860;4.286;2024-02-26T13:10:13;6.50;99.90
22738;DHT22;11536;50.860;4.286;2024-02-26T13:12:47;6.50;99.90
22738;DHT22;11536;50.860;4.286;2024-02-26T13:15:17;6.50;99.90
22738;DHT22;11536;50.860;4.286;2024-02-26T13:17:43;6.40;99.90
22738;DHT22;11536;50.860;4.286;2024-02-26T13:20:09;6.40;99.90
22738;DHT22;11536;50.860;4.286;2024-02-26T13:22:36;6.40;99.90
22738;DHT22;11536;50.860;4.286;2024-02-26T13:25:02;6.40;99.90
22738;DHT22;11536;50.860;4.286;2024-02-26T13:27:28;6.40;99.90
22738;DHT22;11536;50.860;4.286;2024-02-26T13:32:34;6.30;99.90
22738;DHT22;11536;50.860;4.286;2024-02-26T13:35:11;6.30;99.90
22738;DHT22;11536;50.860;4.286;2024-02-26T13:37:38;6.30;99.90
22738;DHT22;11536;50.860;4.286;2024-02-26T13:40:05;6.30;99.90
22738;DHT22;11536;50.860;4.286;2024-02-26T13:42:31;6.40;99.90
22738;DHT22;11536;50.860;4.286;2024-02-26T13:44:57;6.40;99.90
22738;DHT22;11536;50.860;4.286;2024-02-26T13:47:22;6.40;99.90
22738;DHT22;11536;50.860;4.286;2024-02-26T13:49:48;6.40;99.90
22738;DHT22;11536;50.860;4.286;2024-02-26T13:52:14;6.40;99.90
22738;DHT22;11536;50.860;4.286;2024-02-26T13:54:39;6.40;99.90
22738;DHT22;11536;50.860;4.286;2024-02-26T13:57:06;6.40;99.90
22738;DHT22;11536;50.860;4.286;2024-02-26T13:59:32;6.40;99.90
22738;DHT22;11536;50.860;4.286;2024-02-26T14:01:58;6.40;99.90
22738;DHT22;11536;50.860;4.286;2024-02-26T14:04:23;6.40;99.90
22738;DHT22;11536;50.860;4.286;2024-02-26T14:06:49;6.40;99.90
22738;DHT22;11536;50.860;4.286;2024-02-26T14:09:14;6.40;99.90
22738;DHT22;11536;50.860;4.286;2024-02-26T14:11:45;6.50;99.90
22738;DHT22;11536;50.860;4.286;2024-02-26T14:14:11;6.50;99.90
22738;DHT22;11536;50.860;4.286;2024-02-26T14:16:36;6.50;99.90
22738;DHT22;11536;50.860;4.286;2024-02-26T14:19:02;6.50;99.90
22738;DHT22;11536;50.860;4.286;2024-02-26T14:21:28;6.50;99.90
22738;DHT22;11536;50.860;4.286;2024-02-26T14:23:55;6.50;99.90
22738;DHT22;11536;50.860;4.286;2024-02-26T14:26:22;6.50;99.90
22738;DHT22;11536;50.860;4.286;2024-02-26T14:28:48;6.50;99.90
22738;DHT22;11536;50.860;4.286;2024-02-26T14:31:17;6.50;99.90
22738;DHT22;11536;50.860;4.286;2024-02-26T14:33:43;6.50;99.90
22738;DHT22;11536;50.860;4.286;2024-02-26T14:36:08;6.50;99.90
22738;DHT22;11536;50.860;4.286;2024-02-26T14:38:34;6.50;99.90
22738;DHT22;11536;50.860;4.286;2024-02-26T14:41:00;6.50;99.90
22738;DHT22;11536;50.860;4.286;2024-02-26T14:43:25;6.60;99.90
22738;DHT22;11536;50.860;4.286;2024-02-26T14:45:51;6.50;99.90
22738;DHT22;11536;50.860;4.286;2024-02-26T14:48:17;6.60;99.90
22738;DHT22;11536;50.860;4.286;2024-02-26T14:50:42;6.60;99.90
22738;DHT22;11536;50.860;4.286;2024-02-26T14:53:08;6.60;99.90
22738;DHT22;11536;50.860;4.286;2024-02-26T14:55:33;6.60;99.90
22738;DHT22;11536;50.860;4.286;2024-02-26T14:57:59;6.60;99.90
22738;DHT22;11536;50.860;4.286;2024-02-26T15:00:25;6.60;99.90
22738;DHT22;11536;50.860;4.286;2024-02-26T15:02:51;6.60;99.90
22738;DHT22;11536;50.860;4.286;2024-02-26T15:05:18;6.60;99.90
22738;DHT22;11536;50.860;4.286;2024-02-26T15:07:45;6.60;99.90
22738;DHT22;11536;50.860;4.286;2024-02-26T15:10:10;6.60;99.90
22738;DHT22;11536;50.860;4.286;2024-02-26T15:12:36;6.60;99.90
22738;DHT22;11536;50.860;4.286;2024-02-26T15:15:02;6.60;99.90
22738;DHT22;11536;50.860;4.286;2024-02-26T15:17:28;6.60;99.90
22738;DHT22;11536;50.860;4.286;2024-02-26T15:19:54;6.70;99.90
22738;DHT22;11536;50.860;4.286;2024-02-26T15:22:22;6.60;99.90
22738;DHT22;11536;50.860;4.286;2024-02-26T15:24:48;6.70;99.90
22738;DHT22;11536;50.860;4.286;2024-02-26T15:27:13;6.70;99.90
22738;DHT22;11536;50.860;4.286;2024-02-26T15:29:39;6.60;99.90
22738;DHT22;11536;50.860;4.286;2024-02-26T15:32:05;6.60;99.90
22738;DHT22;11536;50.860;4.286;2024-02-26T15:34:30;6.60;99.90
22738;DHT22;11536;50.860;4.286;2024-02-26T15:36:56;6.60;99.90
22738;DHT22;11536;50.860;4.286;2024-02-26T15:39:22;6.60;99.90
22738;DHT22;11536;50.860;4.286;2024-02-26T15:41:47;6.60;99.90
22738;DHT22;11536;50.860;4.286;2024-02-26T15:44:13;6.60;99.90
22738;DHT22;11536;50.860;4.286;2024-02-26T15:46:40;6.60;99.90
22738;DHT22;11536;50.860;4.286;2024-02-26T15:49:06;6.60;99.90